Terminal Aerodrome Forecast
Issued by NWS

Home | Current Version | Previous Version | Text Only | Print | Product List | Glossary On
Versions: 1 2 3 4 5 6 7 8 9 10 11 12 13 14 15 16
000
FTUS41 KCAR 231700 RRA
TAFBHB
TAF
KBHB 231759Z 2318/2418 33007KT P6SM OVC025
     FM232100 33007KT 3SM -SHRA VCTS SCT008 BKN012 OVC040CB
     FM240300 34006KT 5SM -RA OVC010
     FM241400 34014G32KT P6SM OVC015
      AMD LTD TO CLD VIS AND WIND=

USA.gov is the U.S. government's official web portal to all federal, state and local government web resources and services.